sensor_id;sensor_type;location;lat;lon;timestamp;temperature;humidity
27026;DHT22;14565;48.626;8.978;2023-04-24T00:01:47;9.70;99.90
27026;DHT22;14565;48.626;8.978;2023-04-24T00:04:12;9.60;99.90
27026;DHT22;14565;48.626;8.978;2023-04-24T00:06:39;9.70;99.90
27026;DHT22;14565;48.626;8.978;2023-04-24T00:09:08;9.70;99.90
27026;DHT22;14565;48.626;8.978;2023-04-24T00:11:35;9.70;99.90
27026;DHT22;14565;48.626;8.978;2023-04-24T00:14:01;9.70;99.90
27026;DHT22;14565;48.626;8.978;2023-04-24T00:16:27;9.70;99.90
27026;DHT22;14565;48.626;8.978;2023-04-24T00:18:53;9.70;99.90
27026;DHT22;14565;48.626;8.978;2023-04-24T00:21:19;9.60;99.90
27026;DHT22;14565;48.626;8.978;2023-04-24T00:23:44;9.70;99.90
27026;DHT22;14565;48.626;8.978;2023-04-24T00:26:10;9.80;99.90
27026;DHT22;14565;48.626;8.978;2023-04-24T00:28:36;9.70;99.90
27026;DHT22;14565;48.626;8.978;2023-04-24T00:31:01;9.70;99.90
27026;DHT22;14565;48.626;8.978;2023-04-24T00:33:27;9.70;99.90
27026;DHT22;14565;48.626;8.978;2023-04-24T00:35:53;9.80;99.90
27026;DHT22;14565;48.626;8.978;2023-04-24T00:38:18;9.80;99.90
27026;DHT22;14565;48.626;8.978;2023-04-24T00:40:44;9.80;99.90
27026;DHT22;14565;48.626;8.978;2023-04-24T00:43:10;9.80;99.90
27026;DHT22;14565;48.626;8.978;2023-04-24T00:45:36;9.90;99.90
27026;DHT22;14565;48.626;8.978;2023-04-24T00:48:02;9.90;99.90
27026;DHT22;14565;48.626;8.978;2023-04-24T00:50:28;9.90;99.90
27026;DHT22;14565;48.626;8.978;2023-04-24T00:52:54;9.90;99.90
27026;DHT22;14565;48.626;8.978;2023-04-24T00:55:20;9.90;99.90
27026;DHT22;14565;48.626;8.978;2023-04-24T00:57:46;10.00;99.90
27026;DHT22;14565;48.626;8.978;2023-04-24T01:00:13;10.10;99.90
27026;DHT22;14565;48.626;8.978;2023-04-24T01:02:44;9.90;99.90
27026;DHT22;14565;48.626;8.978;2023-04-24T01:05:12;9.90;99.90
27026;DHT22;14565;48.626;8.978;2023-04-24T01:07:39;9.90;99.90
27026;DHT22;14565;48.626;8.978;2023-04-24T01:10:09;9.90;99.90
27026;DHT22;14565;48.626;8.978;2023-04-24T01:12:35;9.90;99.90
27026;DHT22;14565;48.626;8.978;2023-04-24T01:15:01;9.90;99.90
27026;DHT22;14565;48.626;8.978;2023-04-24T01:17:26;9.90;99.90
27026;DHT22;14565;48.626;8.978;2023-04-24T01:19:52;9.90;99.90
27026;DHT22;14565;48.626;8.978;2023-04-24T01:22:22;9.80;99.90
27026;DHT22;14565;48.626;8.978;2023-04-24T01:24:48;9.80;99.90
27026;DHT22;14565;48.626;8.978;2023-04-24T01:27:14;9.80;99.90
27026;DHT22;14565;48.626;8.978;2023-04-24T01:29:40;9.80;99.90
27026;DHT22;14565;48.626;8.978;2023-04-24T01:32:06;9.80;99.90
27026;DHT22;14565;48.626;8.978;2023-04-24T01:34:33;9.80;99.90
27026;DHT22;14565;48.626;8.978;2023-04-24T01:36:59;9.90;99.90
27026;DHT22;14565;48.626;8.978;2023-04-24T01:39:26;9.80;99.90
27026;DHT22;14565;48.626;8.978;2023-04-24T01:41:54;9.70;99.90
27026;DHT22;14565;48.626;8.978;2023-04-24T01:44:20;9.70;99.90
27026;DHT22;14565;48.626;8.978;2023-04-24T01:46:46;9.80;99.90
27026;DHT22;14565;48.626;8.978;2023-04-24T01:49:12;9.80;99.90
27026;DHT22;14565;48.626;8.978;2023-04-24T01:51:38;9.80;99.90
27026;DHT22;14565;48.626;8.978;2023-04-24T01:54:03;9.70;99.90
27026;DHT22;14565;48.626;8.978;2023-04-24T01:56:33;9.60;99.90
27026;DHT22;14565;48.626;8.978;2023-04-24T01:58:58;9.60;99.90
27026;DHT22;14565;48.626;8.978;2023-04-24T02:01:25;9.50;99.90
27026;DHT22;14565;48.626;8.978;2023-04-24T02:03:50;9.50;99.90
27026;DHT22;14565;48.626;8.978;2023-04-24T02:06:16;9.50;99.90
27026;DHT22;14565;48.626;8.978;2023-04-24T02:08:42;9.40;99.90
27026;DHT22;14565;48.626;8.978;2023-04-24T02:11:10;9.30;99.90
27026;DHT22;14565;48.626;8.978;2023-04-24T02:13:36;9.30;99.90
27026;DHT22;14565;48.626;8.978;2023-04-24T02:16:02;9.20;99.90
27026;DHT22;14565;48.626;8.978;2023-04-24T02:18:27;9.20;99.90
27026;DHT22;14565;48.626;8.978;2023-04-24T02:20:53;9.20;99.90
27026;DHT22;14565;48.626;8.978;2023-04-24T02:23:19;9.30;99.90
27026;DHT22;14565;48.626;8.978;2023-04-24T02:25:44;9.30;99.90
27026;DHT22;14565;48.626;8.978;2023-04-24T02:28:11;9.30;99.90
27026;DHT22;14565;48.626;8.978;2023-04-24T02:30:36;9.30;99.90
27026;DHT22;14565;48.626;8.978;2023-04-24T02:33:02;9.30;99.90
27026;DHT22;14565;48.626;8.978;2023-04-24T02:35:28;9.30;99.90
27026;DHT22;14565;48.626;8.978;2023-04-24T02:37:54;9.30;99.90
27026;DHT22;14565;48.626;8.978;2023-04-24T02:40:19;9.40;99.90
27026;DHT22;14565;48.626;8.978;2023-04-24T02:42:45;9.30;99.90
27026;DHT22;14565;48.626;8.978;2023-04-24T02:45:11;9.30;99.90
27026;DHT22;14565;48.626;8.978;2023-04-24T02:47:36;9.40;99.90
27026;DHT22;14565;48.626;8.978;2023-04-24T02:50:02;9.40;99.90
27026;DHT22;14565;48.626;8.978;2023-04-24T02:52:28;9.30;99.90
27026;DHT22;14565;48.626;8.978;2023-04-24T02:54:54;9.30;99.90
27026;DHT22;14565;48.626;8.978;2023-04-24T02:57:19;9.30;99.90
27026;DHT22;14565;48.626;8.978;2023-04-24T02:59:45;9.30;99.90
27026;DHT22;14565;48.626;8.978;2023-04-24T03:02:11;9.30;99.90
27026;DHT22;14565;48.626;8.978;2023-04-24T03:04:36;9.50;99.90
27026;DHT22;14565;48.626;8.978;2023-04-24T03:07:02;9.40;99.90
27026;DHT22;14565;48.626;8.978;2023-04-24T03:09:27;9.30;99.90
27026;DHT22;14565;48.626;8.978;2023-04-24T03:11:53;9.30;99.90
27026;DHT22;14565;48.626;8.978;2023-04-24T03:14:19;9.20;99.90
27026;DHT22;14565;48.626;8.978;2023-04-24T03:16:44;9.20;99.90
27026;DHT22;14565;48.626;8.978;2023-04-24T03:19:10;9.20;99.90
27026;DHT22;14565;48.626;8.978;2023-04-24T03:21:36;9.20;99.90
27026;DHT22;14565;48.626;8.978;2023-04-24T03:24:09;9.20;99.90
27026;DHT22;14565;48.626;8.978;2023-04-24T03:26:37;9.20;99.90
27026;DHT22;14565;48.626;8.978;2023-04-24T03:29:03;9.20;99.90
27026;DHT22;14565;48.626;8.978;2023-04-24T03:31:28;9.20;99.90
27026;DHT22;14565;48.626;8.978;2023-04-24T03:33:54;9.10;99.90
27026;DHT22;14565;48.626;8.978;2023-04-24T03:36:20;9.10;99.90
27026;DHT22;14565;48.626;8.978;2023-04-24T03:38:46;9.10;99.90
27026;DHT22;14565;48.626;8.978;2023-04-24T03:41:11;9.00;99.90
27026;DHT22;14565;48.626;8.978;2023-04-24T03:43:37;8.90;99.90
27026;DHT22;14565;48.626;8.978;2023-04-24T03:46:03;8.90;99.90
27026;DHT22;14565;48.626;8.978;2023-04-24T03:48:29;8.90;99.90
27026;DHT22;14565;48.626;8.978;2023-04-24T03:50:54;8.90;99.90
27026;DHT22;14565;48.626;8.978;2023-04-24T03:53:20;8.90;99.90
27026;DHT22;14565;48.626;8.978;2023-04-24T03:55:46;8.90;99.90
27026;DHT22;14565;48.626;8.978;2023-04-24T03:58:11;8.90;99.90
27026;DHT22;14565;48.626;8.978;2023-04-24T04:00:39;8.80;99.90
27026;DHT22;14565;48.626;8.978;2023-04-24T04:03:05;8.80;99.90
27026;DHT22;14565;48.626;8.978;2023-04-24T04:05:31;8.80;99.90
27026;DHT22;14565;48.626;8.978;2023-04-24T04:07:57;8.90;99.90
27026;DHT22;14565;48.626;8.978;2023-04-24T04:10:22;9.00;99.90
27026;DHT22;14565;48.626;8.978;2023-04-24T04:12:48;9.10;99.90
27026;DHT22;14565;48.626;8.978;2023-04-24T04:15:14;9.10;99.90
27026;DHT22;14565;48.626;8.978;2023-04-24T04:17:39;9.10;99.90
27026;DHT22;14565;48.626;8.978;2023-04-24T04:20:06;9.10;99.90
27026;DHT22;14565;48.626;8.978;2023-04-24T04:22:35;9.10;99.90
27026;DHT22;14565;48.626;8.978;2023-04-24T04:25:01;9.20;99.90
27026;DHT22;14565;48.626;8.978;2023-04-24T04:27:26;9.10;99.90
27026;DHT22;14565;48.626;8.978;2023-04-24T04:29:53;9.10;99.90
27026;DHT22;14565;48.626;8.978;2023-04-24T04:32:21;9.10;99.90
27026;DHT22;14565;48.626;8.978;2023-04-24T04:34:47;9.10;99.90
27026;DHT22;14565;48.626;8.978;2023-04-24T04:37:14;9.10;99.90
27026;DHT22;14565;48.626;8.978;2023-04-24T04:39:40;9.00;99.90
27026;DHT22;14565;48.626;8.978;2023-04-24T04:42:06;8.70;99.90
27026;DHT22;14565;48.626;8.978;2023-04-24T04:44:32;8.50;99.90
27026;DHT22;14565;48.626;8.978;2023-04-24T04:46:58;8.40;99.90
27026;DHT22;14565;48.626;8.978;2023-04-24T04:49:26;8.50;99.90
27026;DHT22;14565;48.626;8.978;2023-04-24T04:51:53;8.60;99.90
27026;DHT22;14565;48.626;8.978;2023-04-24T04:54:19;8.30;99.90
27026;DHT22;14565;48.626;8.978;2023-04-24T04:56:45;8.30;99.90
27026;DHT22;14565;48.626;8.978;2023-04-24T04:59:10;8.20;99.90
27026;DHT22;14565;48.626;8.978;2023-04-24T05:01:37;8.10;99.90
27026;DHT22;14565;48.626;8.978;2023-04-24T05:04:03;8.00;99.90
27026;DHT22;14565;48.626;8.978;2023-04-24T05:06:29;8.10;99.90
27026;DHT22;14565;48.626;8.978;2023-04-24T05:08:56;8.10;99.90
27026;DHT22;14565;48.626;8.978;2023-04-24T05:11:23;8.00;99.90
27026;DHT22;14565;48.626;8.978;2023-04-24T05:13:51;8.10;99.90
27026;DHT22;14565;48.626;8.978;2023-04-24T05:16:19;8.10;99.90
27026;DHT22;14565;48.626;8.978;2023-04-24T05:18:45;8.20;99.90
27026;DHT22;14565;48.626;8.978;2023-04-24T05:21:11;8.30;99.90
27026;DHT22;14565;48.626;8.978;2023-04-24T05:23:37;8.20;99.90
27026;DHT22;14565;48.626;8.978;2023-04-24T05:26:03;8.20;99.90
27026;DHT22;14565;48.626;8.978;2023-04-24T05:28:29;8.20;99.90
27026;DHT22;14565;48.626;8.978;2023-04-24T05:30:55;8.30;99.90
27026;DHT22;14565;48.626;8.978;2023-04-24T05:33:21;8.40;99.90
27026;DHT22;14565;48.626;8.978;2023-04-24T05:35:48;8.50;99.90
27026;DHT22;14565;48.626;8.978;2023-04-24T05:38:16;8.50;99.90
27026;DHT22;14565;48.626;8.978;2023-04-24T05:40:45;8.60;99.90
27026;DHT22;14565;48.626;8.978;2023-04-24T05:43:11;8.60;99.90
27026;DHT22;14565;48.626;8.978;2023-04-24T05:45:38;8.60;99.90
27026;DHT22;14565;48.626;8.978;2023-04-24T05:48:04;8.80;99.90
27026;DHT22;14565;48.626;8.978;2023-04-24T05:50:30;8.70;99.90
27026;DHT22;14565;48.626;8.978;2023-04-24T05:52:58;8.70;99.90
27026;DHT22;14565;48.626;8.978;2023-04-24T05:55:25;8.70;99.90
27026;DHT22;14565;48.626;8.978;2023-04-24T05:57:51;8.70;99.90
27026;DHT22;14565;48.626;8.978;2023-04-24T06:00:17;8.80;99.90
27026;DHT22;14565;48.626;8.978;2023-04-24T06:02:45;8.80;99.90
27026;DHT22;14565;48.626;8.978;2023-04-24T06:05:11;8.80;99.90
27026;DHT22;14565;48.626;8.978;2023-04-24T06:07:37;8.80;99.90
27026;DHT22;14565;48.626;8.978;2023-04-24T06:10:03;9.10;99.90
27026;DHT22;14565;48.626;8.978;2023-04-24T06:12:28;9.60;99.90
27026;DHT22;14565;48.626;8.978;2023-04-24T06:14:54;11.20;99.90
27026;DHT22;14565;48.626;8.978;2023-04-24T06:17:27;12.80;99.90
27026;DHT22;14565;48.626;8.978;2023-04-24T06:20:05;14.20;99.90
27026;DHT22;14565;48.626;8.978;2023-04-24T06:22:31;15.50;99.90
27026;DHT22;14565;48.626;8.978;2023-04-24T06:24:57;14.60;99.90
27026;DHT22;14565;48.626;8.978;2023-04-24T06:27:23;13.40;99.90
27026;DHT22;14565;48.626;8.978;2023-04-24T06:29:48;13.40;99.90
27026;DHT22;14565;48.626;8.978;2023-04-24T06:32:22;13.80;99.90
27026;DHT22;14565;48.626;8.978;2023-04-24T06:34:48;13.90;99.90
27026;DHT22;14565;48.626;8.978;2023-04-24T06:37:14;13.30;99.90
27026;DHT22;14565;48.626;8.978;2023-04-24T06:39:40;12.00;99.90
27026;DHT22;14565;48.626;8.978;2023-04-24T06:42:06;11.40;99.90
27026;DHT22;14565;48.626;8.978;2023-04-24T06:44:33;11.00;99.90
27026;DHT22;14565;48.626;8.978;2023-04-24T06:47:03;11.00;99.90
27026;DHT22;14565;48.626;8.978;2023-04-24T06:49:29;10.50;99.90
27026;DHT22;14565;48.626;8.978;2023-04-24T06:51:57;10.80;99.90
27026;DHT22;14565;48.626;8.978;2023-04-24T06:54:23;11.00;99.90
27026;DHT22;14565;48.626;8.978;2023-04-24T06:56:48;10.80;99.90
27026;DHT22;14565;48.626;8.978;2023-04-24T06:59:16;10.70;99.90
27026;DHT22;14565;48.626;8.978;2023-04-24T07:01:41;10.60;99.90
27026;DHT22;14565;48.626;8.978;2023-04-24T07:04:07;10.60;99.90
27026;DHT22;14565;48.626;8.978;2023-04-24T07:06:33;10.20;99.90
27026;DHT22;14565;48.626;8.978;2023-04-24T07:08:59;9.90;99.90
27026;DHT22;14565;48.626;8.978;2023-04-24T07:11:25;9.40;99.90
27026;DHT22;14565;48.626;8.978;2023-04-24T07:13:54;9.00;99.90
27026;DHT22;14565;48.626;8.978;2023-04-24T07:16:21;8.90;99.90
27026;DHT22;14565;48.626;8.978;2023-04-24T07:18:49;9.10;99.90
27026;DHT22;14565;48.626;8.978;2023-04-24T07:21:15;9.30;99.90
27026;DHT22;14565;48.626;8.978;2023-04-24T07:23:41;9.60;99.90
27026;DHT22;14565;48.626;8.978;2023-04-24T07:26:06;10.20;99.90
27026;DHT22;14565;48.626;8.978;2023-04-24T07:28:32;10.30;99.90
27026;DHT22;14565;48.626;8.978;2023-04-24T07:30:58;10.90;99.90
27026;DHT22;14565;48.626;8.978;2023-04-24T07:33:28;11.70;99.90
27026;DHT22;14565;48.626;8.978;2023-04-24T07:35:54;12.60;99.90
27026;DHT22;14565;48.626;8.978;2023-04-24T07:38:19;11.70;99.90
27026;DHT22;14565;48.626;8.978;2023-04-24T07:40:47;12.00;99.90
27026;DHT22;14565;48.626;8.978;2023-04-24T07:43:13;12.30;99.90
27026;DHT22;14565;48.626;8.978;2023-04-24T07:45:39;12.00;99.90
27026;DHT22;14565;48.626;8.978;2023-04-24T07:48:06;11.70;99.90
27026;DHT22;14565;48.626;8.978;2023-04-24T07:50:32;11.10;99.90
27026;DHT22;14565;48.626;8.978;2023-04-24T07:52:58;11.10;99.90
27026;DHT22;14565;48.626;8.978;2023-04-24T07:55:23;11.30;99.90
27026;DHT22;14565;48.626;8.978;2023-04-24T07:57:49;11.60;99.90
27026;DHT22;14565;48.626;8.978;2023-04-24T08:00:15;11.60;99.90
27026;DHT22;14565;48.626;8.978;2023-04-24T08:02:41;11.20;99.90
27026;DHT22;14565;48.626;8.978;2023-04-24T08:05:10;11.00;99.90
27026;DHT22;14565;48.626;8.978;2023-04-24T08:07:36;10.90;99.90
27026;DHT22;14565;48.626;8.978;2023-04-24T08:10:02;11.00;99.90
27026;DHT22;14565;48.626;8.978;2023-04-24T08:12:28;10.80;99.90
27026;DHT22;14565;48.626;8.978;2023-04-24T08:14:58;10.70;99.90
27026;DHT22;14565;48.626;8.978;2023-04-24T08:17:29;10.40;99.90
27026;DHT22;14565;48.626;8.978;2023-04-24T08:19:55;10.40;99.90
27026;DHT22;14565;48.626;8.978;2023-04-24T08:22:29;10.60;99.90
27026;DHT22;14565;48.626;8.978;2023-04-24T08:24:56;11.40;99.90
27026;DHT22;14565;48.626;8.978;2023-04-24T08:27:23;11.50;99.90
27026;DHT22;14565;48.626;8.978;2023-04-24T08:29:49;12.30;99.90
27026;DHT22;14565;48.626;8.978;2023-04-24T08:32:16;12.10;99.90
27026;DHT22;14565;48.626;8.978;2023-04-24T08:34:42;12.10;99.90
27026;DHT22;14565;48.626;8.978;2023-04-24T08:37:08;11.90;99.90
27026;DHT22;14565;48.626;8.978;2023-04-24T08:39:33;11.40;99.90
27026;DHT22;14565;48.626;8.978;2023-04-24T08:42:00;11.40;99.90
27026;DHT22;14565;48.626;8.978;2023-04-24T08:44:34;11.00;99.90
27026;DHT22;14565;48.626;8.978;2023-04-24T08:47:04;11.00;99.90
27026;DHT22;14565;48.626;8.978;2023-04-24T08:49:31;10.70;99.90
27026;DHT22;14565;48.626;8.978;2023-04-24T08:51:57;11.00;99.90
27026;DHT22;14565;48.626;8.978;2023-04-24T08:54:23;10.80;99.90
27026;DHT22;14565;48.626;8.978;2023-04-24T08:56:53;11.00;99.90
27026;DHT22;14565;48.626;8.978;2023-04-24T08:59:21;11.70;99.90
27026;DHT22;14565;48.626;8.978;2023-04-24T09:01:48;11.20;99.90
27026;DHT22;14565;48.626;8.978;2023-04-24T09:04:15;11.10;99.90
27026;DHT22;14565;48.626;8.978;2023-04-24T09:06:43;11.00;99.90
27026;DHT22;14565;48.626;8.978;2023-04-24T09:09:10;11.70;99.90
27026;DHT22;14565;48.626;8.978;2023-04-24T09:11:37;11.60;99.90
27026;DHT22;14565;48.626;8.978;2023-04-24T09:14:03;11.40;99.90
27026;DHT22;14565;48.626;8.978;2023-04-24T09:16:29;11.70;99.90
27026;DHT22;14565;48.626;8.978;2023-04-24T09:18:58;11.70;99.90
27026;DHT22;14565;48.626;8.978;2023-04-24T09:21:31;11.90;99.90
27026;DHT22;14565;48.626;8.978;2023-04-24T09:24:04;12.20;99.90
27026;DHT22;14565;48.626;8.978;2023-04-24T09:26:34;12.30;99.90
27026;DHT22;14565;48.626;8.978;2023-04-24T09:29:00;12.60;99.90
27026;DHT22;14565;48.626;8.978;2023-04-24T09:31:28;12.80;99.90
27026;DHT22;14565;48.626;8.978;2023-04-24T09:33:59;13.00;99.90
27026;DHT22;14565;48.626;8.978;2023-04-24T09:36:34;13.00;99.90
27026;DHT22;14565;48.626;8.978;2023-04-24T09:39:03;12.90;99.90
27026;DHT22;14565;48.626;8.978;2023-04-24T09:41:32;13.20;99.90
27026;DHT22;14565;48.626;8.978;2023-04-24T09:44:12;13.50;99.90
27026;DHT22;14565;48.626;8.978;2023-04-24T09:46:38;13.60;99.90
27026;DHT22;14565;48.626;8.978;2023-04-24T09:49:13;14.00;99.90
27026;DHT22;14565;48.626;8.978;2023-04-24T09:51:40;13.80;99.90
27026;DHT22;14565;48.626;8.978;2023-04-24T09:54:18;13.50;99.90
27026;DHT22;14565;48.626;8.978;2023-04-24T09:56:46;13.10;99.90
27026;DHT22;14565;48.626;8.978;2023-04-24T09:59:14;13.70;99.90
27026;DHT22;14565;48.626;8.978;2023-04-24T10:01:40;14.70;99.90
27026;DHT22;14565;48.626;8.978;2023-04-24T10:04:18;14.60;99.90
27026;DHT22;14565;48.626;8.978;2023-04-24T10:06:45;14.00;99.90
27026;DHT22;14565;48.626;8.978;2023-04-24T10:09:11;13.80;99.90
27026;DHT22;14565;48.626;8.978;2023-04-24T10:11:42;13.80;99.90
27026;DHT22;14565;48.626;8.978;2023-04-24T10:14:10;13.70;99.90
27026;DHT22;14565;48.626;8.978;2023-04-24T10:16:38;13.50;99.90
27026;DHT22;14565;48.626;8.978;2023-04-24T10:19:04;13.00;99.90
27026;DHT22;14565;48.626;8.978;2023-04-24T10:21:31;13.40;99.90
27026;DHT22;14565;48.626;8.978;2023-04-24T10:23:57;13.60;99.90
27026;DHT22;14565;48.626;8.978;2023-04-24T10:26:26;12.70;99.90
27026;DHT22;14565;48.626;8.978;2023-04-24T10:28:54;12.40;99.90
27026;DHT22;14565;48.626;8.978;2023-04-24T10:31:22;12.40;99.90
27026;DHT22;14565;48.626;8.978;2023-04-24T10:33:50;12.60;99.90
27026;DHT22;14565;48.626;8.978;2023-04-24T10:36:17;12.70;99.90
27026;DHT22;14565;48.626;8.978;2023-04-24T10:38:45;12.50;99.90
27026;DHT22;14565;48.626;8.978;2023-04-24T10:41:13;12.20;99.90
27026;DHT22;14565;48.626;8.978;2023-04-24T10:43:45;12.20;99.90
27026;DHT22;14565;48.626;8.978;2023-04-24T10:46:19;12.60;99.90
27026;DHT22;14565;48.626;8.978;2023-04-24T10:48:55;12.00;99.90
27026;DHT22;14565;48.626;8.978;2023-04-24T10:51:22;12.20;99.90
27026;DHT22;14565;48.626;8.978;2023-04-24T10:53:50;11.80;99.90
27026;DHT22;14565;48.626;8.978;2023-04-24T10:56:17;12.20;99.90
27026;DHT22;14565;48.626;8.978;2023-04-24T10:58:45;12.80;99.90
27026;DHT22;14565;48.626;8.978;2023-04-24T11:01:31;13.60;99.90
27026;DHT22;14565;48.626;8.978;2023-04-24T11:04:02;14.00;99.90
27026;DHT22;14565;48.626;8.978;2023-04-24T11:06:33;13.90;99.90
27026;DHT22;14565;48.626;8.978;2023-04-24T11:09:04;13.80;99.90
27026;DHT22;14565;48.626;8.978;2023-04-24T11:11:35;13.20;99.90
27026;DHT22;14565;48.626;8.978;2023-04-24T11:14:04;12.90;99.90
27026;DHT22;14565;48.626;8.978;2023-04-24T11:21:46;13.00;99.90
27026;DHT22;14565;48.626;8.978;2023-04-24T11:26:55;12.70;99.90
27026;DHT22;14565;48.626;8.978;2023-04-24T11:29:22;12.40;99.90
27026;DHT22;14565;48.626;8.978;2023-04-24T11:31:48;12.30;99.90
27026;DHT22;14565;48.626;8.978;2023-04-24T11:34:17;12.60;99.90
27026;DHT22;14565;48.626;8.978;2023-04-24T11:36:44;12.90;99.90
27026;DHT22;14565;48.626;8.978;2023-04-24T11:39:11;13.00;99.90
27026;DHT22;14565;48.626;8.978;2023-04-24T11:41:37;13.50;99.90
27026;DHT22;14565;48.626;8.978;2023-04-24T11:44:05;13.70;99.90
27026;DHT22;14565;48.626;8.978;2023-04-24T11:46:31;13.60;99.90
27026;DHT22;14565;48.626;8.978;2023-04-24T11:48:57;13.40;99.90
27026;DHT22;14565;48.626;8.978;2023-04-24T11:51:24;13.10;99.90
27026;DHT22;14565;48.626;8.978;2023-04-24T11:53:54;12.70;99.90
27026;DHT22;14565;48.626;8.978;2023-04-24T11:56:24;12.40;99.90
27026;DHT22;14565;48.626;8.978;2023-04-24T11:58:52;12.40;99.90
27026;DHT22;14565;48.626;8.978;2023-04-24T12:01:19;12.30;99.90
27026;DHT22;14565;48.626;8.978;2023-04-24T12:03:50;11.90;99.90
27026;DHT22;14565;48.626;8.978;2023-04-24T12:06:20;11.70;99.90
27026;DHT22;14565;48.626;8.978;2023-04-24T12:08:46;12.00;99.90
27026;DHT22;14565;48.626;8.978;2023-04-24T12:11:15;12.10;99.90
27026;DHT22;14565;48.626;8.978;2023-04-24T12:13:41;12.30;99.90
27026;DHT22;14565;48.626;8.978;2023-04-24T12:16:07;12.20;99.90
27026;DHT22;14565;48.626;8.978;2023-04-24T12:18:32;12.10;99.90
27026;DHT22;14565;48.626;8.978;2023-04-24T12:21:21;12.10;99.90
27026;DHT22;14565;48.626;8.978;2023-04-24T12:23:47;11.90;99.90
27026;DHT22;14565;48.626;8.978;2023-04-24T12:26:18;11.60;99.90
27026;DHT22;14565;48.626;8.978;2023-04-24T12:28:47;11.70;99.90
27026;DHT22;14565;48.626;8.978;2023-04-24T12:31:13;11.70;99.90
27026;DHT22;14565;48.626;8.978;2023-04-24T12:33:39;11.50;99.90
27026;DHT22;14565;48.626;8.978;2023-04-24T12:36:05;11.70;99.90
27026;DHT22;14565;48.626;8.978;2023-04-24T12:38:32;11.70;99.90
27026;DHT22;14565;48.626;8.978;2023-04-24T12:41:09;11.80;99.90
27026;DHT22;14565;48.626;8.978;2023-04-24T12:43:36;11.50;99.90
27026;DHT22;14565;48.626;8.978;2023-04-24T12:46:02;11.20;99.90
27026;DHT22;14565;48.626;8.978;2023-04-24T12:48:28;11.80;99.90
27026;DHT22;14565;48.626;8.978;2023-04-24T12:50:54;11.80;99.90
27026;DHT22;14565;48.626;8.978;2023-04-24T12:53:22;11.80;99.90
27026;DHT22;14565;48.626;8.978;2023-04-24T12:55:48;11.90;99.90
27026;DHT22;14565;48.626;8.978;2023-04-24T12:58:21;12.20;99.90
27026;DHT22;14565;48.626;8.978;2023-04-24T13:00:47;12.40;99.90
27026;DHT22;14565;48.626;8.978;2023-04-24T13:03:13;12.30;99.90
27026;DHT22;14565;48.626;8.978;2023-04-24T13:05:39;12.20;99.90
27026;DHT22;14565;48.626;8.978;2023-04-24T13:08:05;12.10;99.90
27026;DHT22;14565;48.626;8.978;2023-04-24T13:10:30;11.80;99.90
27026;DHT22;14565;48.626;8.978;2023-04-24T13:12:56;12.00;99.90
27026;DHT22;14565;48.626;8.978;2023-04-24T13:15:25;11.60;99.90
27026;DHT22;14565;48.626;8.978;2023-04-24T13:17:51;11.50;99.90
27026;DHT22;14565;48.626;8.978;2023-04-24T13:20:17;11.60;99.90
27026;DHT22;14565;48.626;8.978;2023-04-24T13:22:42;11.80;99.90
27026;DHT22;14565;48.626;8.978;2023-04-24T13:25:08;11.80;99.90
27026;DHT22;14565;48.626;8.978;2023-04-24T13:27:34;11.60;99.90
27026;DHT22;14565;48.626;8.978;2023-04-24T13:30:00;11.60;99.90
27026;DHT22;14565;48.626;8.978;2023-04-24T13:32:26;11.60;99.90
27026;DHT22;14565;48.626;8.978;2023-04-24T13:34:52;11.80;99.90
27026;DHT22;14565;48.626;8.978;2023-04-24T13:37:18;11.50;99.90
27026;DHT22;14565;48.626;8.978;2023-04-24T13:39:44;11.50;99.90
27026;DHT22;14565;48.626;8.978;2023-04-24T13:42:10;11.30;99.90
27026;DHT22;14565;48.626;8.978;2023-04-24T13:44:36;11.30;99.90
27026;DHT22;14565;48.626;8.978;2023-04-24T13:47:01;11.40;99.90
27026;DHT22;14565;48.626;8.978;2023-04-24T13:49:28;11.70;99.90
27026;DHT22;14565;48.626;8.978;2023-04-24T13:51:55;11.70;99.90
27026;DHT22;14565;48.626;8.978;2023-04-24T13:54:21;11.60;99.90
27026;DHT22;14565;48.626;8.978;2023-04-24T13:56:49;11.30;99.90
27026;DHT22;14565;48.626;8.978;2023-04-24T13:59:14;11.20;99.90
27026;DHT22;14565;48.626;8.978;2023-04-24T14:01:40;11.40;99.90
27026;DHT22;14565;48.626;8.978;2023-04-24T14:04:06;11.30;99.90
27026;DHT22;14565;48.626;8.978;2023-04-24T14:06:32;11.40;99.90
27026;DHT22;14565;48.626;8.978;2023-04-24T14:08:57;11.30;99.90
27026;DHT22;14565;48.626;8.978;2023-04-24T14:11:23;11.40;99.90
27026;DHT22;14565;48.626;8.978;2023-04-24T14:13:49;11.30;99.90
27026;DHT22;14565;48.626;8.978;2023-04-24T14:16:15;11.60;99.90
27026;DHT22;14565;48.626;8.978;2023-04-24T14:18:40;11.60;99.90
27026;DHT22;14565;48.626;8.978;2023-04-24T14:21:06;11.50;99.90
27026;DHT22;14565;48.626;8.978;2023-04-24T14:23:32;11.50;99.90
27026;DHT22;14565;48.626;8.978;2023-04-24T14:25:58;11.50;99.90
27026;DHT22;14565;48.626;8.978;2023-04-24T14:28:24;11.60;99.90
27026;DHT22;14565;48.626;8.978;2023-04-24T14:30:51;11.80;99.90
27026;DHT22;14565;48.626;8.978;2023-04-24T14:33:17;11.90;99.90
27026;DHT22;14565;48.626;8.978;2023-04-24T14:35:43;11.80;99.90
27026;DHT22;14565;48.626;8.978;2023-04-24T14:38:12;11.70;99.90
27026;DHT22;14565;48.626;8.978;2023-04-24T14:40:37;11.50;99.90
27026;DHT22;14565;48.626;8.978;2023-04-24T14:43:03;11.90;99.90
27026;DHT22;14565;48.626;8.978;2023-04-24T14:45:29;11.70;99.90
27026;DHT22;14565;48.626;8.978;2023-04-24T14:47:55;11.80;99.90
27026;DHT22;14565;48.626;8.978;2023-04-24T14:50:21;11.90;99.90
27026;DHT22;14565;48.626;8.978;2023-04-24T14:52:47;12.10;99.90
27026;DHT22;14565;48.626;8.978;2023-04-24T14:55:13;11.90;99.90
27026;DHT22;14565;48.626;8.978;2023-04-24T14:57:40;12.40;99.90
27026;DHT22;14565;48.626;8.978;2023-04-24T15:00:06;12.20;99.90
27026;DHT22;14565;48.626;8.978;2023-04-24T15:02:35;11.90;99.90
27026;DHT22;14565;48.626;8.978;2023-04-24T15:05:05;11.80;99.90
27026;DHT22;14565;48.626;8.978;2023-04-24T15:07:31;11.80;99.90
27026;DHT22;14565;48.626;8.978;2023-04-24T15:09:58;12.00;99.90
27026;DHT22;14565;48.626;8.978;2023-04-24T15:12:24;11.80;99.90
27026;DHT22;14565;48.626;8.978;2023-04-24T15:14:52;12.00;99.90
27026;DHT22;14565;48.626;8.978;2023-04-24T15:17:24;12.00;99.90
27026;DHT22;14565;48.626;8.978;2023-04-24T15:19:59;11.40;99.90
27026;DHT22;14565;48.626;8.978;2023-04-24T15:22:26;11.60;99.90
27026;DHT22;14565;48.626;8.978;2023-04-24T15:24:51;11.80;99.90
27026;DHT22;14565;48.626;8.978;2023-04-24T15:27:17;11.80;99.90
27026;DHT22;14565;48.626;8.978;2023-04-24T15:29:43;11.80;99.90
27026;DHT22;14565;48.626;8.978;2023-04-24T15:32:08;11.70;99.90
27026;DHT22;14565;48.626;8.978;2023-04-24T15:34:34;12.20;99.90
27026;DHT22;14565;48.626;8.978;2023-04-24T15:37:00;12.10;99.90
27026;DHT22;14565;48.626;8.978;2023-04-24T15:39:26;12.20;99.90
27026;DHT22;14565;48.626;8.978;2023-04-24T15:41:52;12.00;99.90
27026;DHT22;14565;48.626;8.978;2023-04-24T15:44:19;11.90;99.90